createdAt,value
2018-06-30T00:02:03.317Z,15.50
2018-06-30T00:05:06.471Z,15.40
2018-06-30T00:08:09.695Z,15.30
2018-06-30T00:11:12.889Z,15.30
2018-06-30T00:14:16.096Z,15.30
2018-06-30T00:17:19.328Z,15.30
2018-06-30T00:20:22.522Z,15.20
2018-06-30T00:23:26.250Z,15.20
2018-06-30T00:26:29.427Z,15.40
2018-06-30T00:29:32.662Z,15.30
2018-06-30T00:32:35.860Z,15.20
2018-06-30T00:35:39.039Z,15.20
2018-06-30T00:38:42.235Z,15.20
2018-06-30T00:41:45.435Z,15.20
2018-06-30T00:44:48.675Z,15.10
2018-06-30T00:47:51.891Z,15.20
2018-06-30T00:50:55.083Z,15.10
2018-06-30T00:53:58.314Z,15.00
2018-06-30T00:57:01.512Z,15.00
2018-06-30T01:00:04.879Z,15.00
2018-06-30T01:03:08.199Z,15.00
2018-06-30T01:06:11.400Z,15.00
2018-06-30T01:09:14.644Z,15.10
2018-06-30T01:12:17.827Z,15.10
2018-06-30T01:15:21.027Z,15.20
2018-06-30T01:18:24.225Z,15.30
2018-06-30T01:21:27.411Z,15.10
2018-06-30T01:24:30.610Z,15.20
2018-06-30T01:30:36.715Z,15.10
2018-06-30T01:33:39.896Z,15.20
2018-06-30T01:36:43.067Z,15.00
2018-06-30T01:39:46.240Z,15.00
2018-06-30T01:42:49.396Z,15.00
2018-06-30T01:45:52.567Z,15.00
2018-06-30T01:48:55.799Z,14.90
2018-06-30T01:51:58.979Z,14.90
2018-06-30T01:55:02.975Z,14.70
2018-06-30T01:58:07.023Z,14.70
2018-06-30T02:01:10.188Z,14.70
2018-06-30T02:04:13.343Z,14.60
2018-06-30T02:07:16.524Z,14.60
2018-06-30T02:10:19.695Z,14.50
2018-06-30T02:13:22.866Z,14.50
2018-06-30T02:16:27.015Z,14.60
2018-06-30T02:19:30.186Z,14.60
2018-06-30T02:22:33.358Z,14.60
2018-06-30T02:25:36.534Z,14.50
2018-06-30T02:28:39.720Z,14.60
2018-06-30T02:31:42.896Z,14.50
2018-06-30T02:34:46.614Z,14.40
2018-06-30T02:37:49.788Z,14.40
2018-06-30T02:40:53.027Z,14.40
2018-06-30T02:43:56.194Z,14.40
2018-06-30T02:46:59.363Z,14.30
2018-06-30T02:50:02.522Z,14.40
2018-06-30T02:53:06.300Z,14.40
2018-06-30T02:56:09.506Z,14.50
2018-06-30T02:59:12.675Z,14.40
2018-06-30T03:02:15.855Z,14.40
2018-06-30T03:05:19.018Z,14.40
2018-06-30T03:08:22.211Z,14.50
2018-06-30T03:11:25.382Z,14.50
2018-06-30T03:14:28.684Z,14.50
2018-06-30T03:17:31.876Z,14.50
2018-06-30T03:20:35.047Z,14.70
2018-06-30T03:23:38.238Z,14.70
2018-06-30T03:26:41.399Z,14.70
2018-06-30T03:29:44.636Z,14.80
2018-06-30T03:32:47.820Z,15.10
2018-06-30T03:35:50.982Z,15.10
2018-06-30T03:38:54.161Z,15.20
2018-06-30T03:41:57.333Z,15.40
2018-06-30T03:45:00.514Z,15.40
2018-06-30T03:48:03.690Z,15.40
2018-06-30T03:51:06.903Z,15.40
2018-06-30T03:54:10.080Z,15.50
2018-06-30T03:57:13.264Z,15.40
2018-06-30T04:00:16.428Z,15.60
2018-06-30T04:03:19.616Z,15.60
2018-06-30T04:06:22.824Z,15.60
2018-06-30T04:09:26.010Z,15.60
2018-06-30T04:12:29.206Z,15.70
2018-06-30T04:15:33.271Z,16.00
2018-06-30T04:18:36.451Z,16.30
2018-06-30T04:21:39.627Z,17.10
2018-06-30T04:24:42.790Z,17.80
2018-06-30T04:27:46.004Z,18.50
2018-06-30T04:30:49.172Z,18.90
2018-06-30T04:33:52.337Z,19.40
2018-06-30T04:36:55.808Z,20.20
2018-06-30T04:39:58.973Z,20.70
2018-06-30T04:43:02.620Z,21.20
2018-06-30T04:46:05.914Z,21.70
2018-06-30T04:49:09.070Z,22.20
2018-06-30T04:52:12.239Z,22.10
2018-06-30T04:55:15.408Z,22.00
2018-06-30T04:58:18.554Z,22.00
2018-06-30T05:01:21.731Z,22.20
2018-06-30T05:04:24.952Z,22.30
2018-06-30T05:07:28.125Z,22.10
2018-06-30T05:10:31.282Z,22.60
2018-06-30T05:13:34.434Z,22.20
2018-06-30T05:19:40.524Z,22.60
2018-06-30T05:22:43.695Z,22.30
2018-06-30T05:25:46.883Z,21.70
2018-06-30T05:28:50.019Z,21.80
2018-06-30T05:31:53.444Z,21.50
2018-06-30T05:34:56.605Z,21.70
2018-06-30T05:41:02.708Z,22.10
2018-06-30T05:44:05.861Z,23.10
2018-06-30T05:47:09.204Z,23.80
2018-06-30T05:50:12.355Z,23.80
2018-06-30T05:56:18.499Z,24.50
2018-06-30T05:59:21.702Z,25.30
2018-06-30T06:02:24.996Z,25.10
2018-06-30T06:05:28.182Z,24.60
2018-06-30T06:08:31.520Z,24.50
2018-06-30T06:11:34.956Z,24.90
2018-06-30T06:14:38.274Z,24.00
2018-06-30T06:17:41.439Z,23.40
2018-06-30T06:20:44.803Z,24.60
2018-06-30T06:23:47.979Z,25.00
2018-06-30T06:26:51.499Z,25.10
2018-06-30T06:29:54.775Z,25.40
2018-06-30T06:32:58.136Z,24.90
2018-06-30T06:36:01.308Z,24.40
2018-06-30T06:39:08.328Z,23.90
2018-06-30T06:42:11.471Z,23.90
2018-06-30T06:48:18.307Z,24.40
2018-06-30T06:51:21.475Z,23.90
2018-06-30T06:54:24.650Z,24.50
2018-06-30T06:57:27.808Z,25.10
2018-06-30T07:00:31.424Z,25.30
2018-06-30T07:03:34.572Z,24.60
2018-06-30T07:06:37.782Z,23.70
2018-06-30T07:09:40.954Z,23.40
2018-06-30T07:12:44.167Z,23.00
2018-06-30T07:15:47.338Z,23.90
2018-06-30T07:18:50.967Z,25.10
2018-06-30T07:21:54.255Z,26.20
2018-06-30T07:24:57.415Z,26.80
2018-06-30T07:28:00.588Z,26.50
2018-06-30T07:31:03.868Z,26.40
2018-06-30T07:34:07.056Z,25.30
2018-06-30T07:37:10.307Z,25.90
2018-06-30T07:40:13.471Z,27.00
2018-06-30T07:43:16.690Z,26.70
2018-06-30T07:46:19.816Z,26.40
2018-06-30T07:49:23.105Z,27.50
2018-06-30T07:52:26.266Z,26.50
2018-06-30T07:55:29.518Z,24.90
2018-06-30T07:58:32.768Z,25.10
2018-06-30T08:01:36.424Z,26.00
2018-06-30T08:04:39.595Z,26.60
2018-06-30T08:07:42.779Z,27.20
2018-06-30T08:10:46.201Z,28.80
2018-06-30T08:13:49.469Z,28.30
2018-06-30T08:16:52.581Z,27.90
2018-06-30T08:19:55.747Z,27.80
2018-06-30T08:22:59.077Z,27.50
2018-06-30T08:26:02.278Z,28.30
2018-06-30T08:29:05.582Z,27.70
2018-06-30T08:32:08.903Z,27.60
2018-06-30T08:35:12.271Z,28.30
2018-06-30T08:38:15.432Z,26.70
2018-06-30T08:41:18.596Z,26.70
2018-06-30T08:44:21.779Z,26.10
2018-06-30T08:47:24.957Z,26.40
2018-06-30T08:50:28.204Z,27.00
2018-06-30T08:53:31.396Z,27.20
2018-06-30T08:59:37.540Z,28.10
2018-06-30T09:02:40.706Z,27.80
2018-06-30T09:05:43.863Z,27.00
2018-06-30T09:08:47.048Z,26.70
2018-06-30T09:11:50.776Z,26.10
2018-06-30T09:14:53.982Z,26.30
2018-06-30T09:17:57.143Z,26.40
2018-06-30T09:21:00.712Z,26.30
2018-06-30T09:24:04.908Z,26.60
2018-06-30T09:27:08.150Z,26.70
2018-06-30T09:30:11.324Z,26.70
2018-06-30T09:33:14.500Z,26.50
2018-06-30T09:36:17.679Z,26.60
2018-06-30T09:39:20.844Z,26.60
2018-06-30T09:42:24.011Z,26.60
2018-06-30T09:45:27.224Z,27.00
2018-06-30T09:51:33.315Z,25.90
2018-06-30T09:54:36.482Z,26.80
2018-06-30T09:57:39.652Z,27.60
2018-06-30T10:00:48.297Z,27.80
2018-06-30T10:03:51.447Z,28.10
2018-06-30T10:06:54.749Z,28.20
2018-06-30T10:09:57.867Z,27.90
2018-06-30T10:13:01.041Z,27.40
2018-06-30T10:19:07.179Z,27.40
2018-06-30T10:22:10.368Z,27.50
2018-06-30T10:25:13.547Z,27.60
2018-06-30T10:28:16.710Z,27.10
2018-06-30T10:31:19.919Z,26.80
2018-06-30T10:34:23.048Z,26.90
2018-06-30T10:37:26.271Z,27.60
2018-06-30T10:40:29.747Z,28.30
2018-06-30T10:43:32.912Z,28.50
2018-06-30T10:46:36.170Z,28.50
2018-06-30T10:49:39.314Z,26.80
2018-06-30T10:52:42.512Z,27.20
2018-06-30T10:55:45.684Z,27.20
2018-06-30T10:58:48.864Z,27.50
2018-06-30T11:01:52.036Z,28.00
2018-06-30T11:07:58.362Z,27.80
2018-06-30T11:12:55.142Z,27.60
2018-06-30T11:15:58.306Z,27.60
2018-06-30T11:19:01.478Z,26.90
2018-06-30T11:22:04.636Z,26.70
2018-06-30T11:25:08.884Z,26.70
2018-06-30T11:28:12.823Z,27.10
2018-06-30T11:31:16.154Z,27.50
2018-06-30T11:34:19.430Z,27.50
2018-06-30T11:37:22.665Z,26.50
2018-06-30T11:40:25.992Z,26.30
2018-06-30T11:46:32.218Z,26.40
2018-06-30T11:49:35.414Z,25.90
2018-06-30T11:52:38.579Z,25.50
2018-06-30T11:55:41.771Z,25.20
2018-06-30T11:58:44.993Z,25.00
2018-06-30T12:01:48.159Z,24.70
2018-06-30T12:04:51.463Z,24.60
2018-06-30T12:07:54.610Z,24.80
2018-06-30T12:10:57.784Z,25.00
2018-06-30T12:14:01.197Z,25.20
2018-06-30T12:17:05.012Z,25.10
2018-06-30T12:20:08.198Z,25.40
2018-06-30T12:23:11.602Z,25.20
2018-06-30T12:26:14.784Z,25.30
2018-06-30T12:29:18.388Z,25.00
2018-06-30T12:32:21.693Z,25.10
2018-06-30T12:35:24.808Z,25.30
2018-06-30T12:38:28.069Z,25.40
2018-06-30T12:41:31.267Z,25.30
2018-06-30T12:44:34.538Z,25.30
2018-06-30T12:47:37.791Z,25.50
2018-06-30T12:50:40.988Z,25.30
2018-06-30T12:53:44.191Z,25.20
2018-06-30T12:56:47.496Z,25.30
2018-06-30T12:59:50.695Z,25.60
2018-06-30T13:02:54.124Z,25.60
2018-06-30T13:05:57.324Z,25.20
2018-06-30T13:09:00.634Z,25.30
2018-06-30T13:12:04.823Z,25.40
2018-06-30T13:15:08.711Z,25.50
2018-06-30T13:21:14.982Z,25.60
2018-06-30T13:24:18.269Z,25.80
2018-06-30T13:27:21.664Z,25.70
2018-06-30T13:30:24.985Z,25.90
2018-06-30T13:33:28.358Z,25.80
2018-06-30T13:36:31.558Z,25.80
2018-06-30T13:39:34.735Z,25.60
2018-06-30T13:42:38.952Z,25.40
2018-06-30T13:45:42.400Z,25.40
2018-06-30T13:48:45.603Z,25.60
2018-06-30T13:51:48.890Z,25.70
2018-06-30T13:54:52.312Z,25.90
2018-06-30T14:00:58.786Z,25.50
2018-06-30T14:04:02.359Z,25.30
2018-06-30T14:07:05.746Z,25.30
2018-06-30T14:10:09.636Z,25.70
2018-06-30T14:13:12.887Z,26.00
2018-06-30T14:16:16.077Z,25.90
2018-06-30T14:19:19.427Z,25.80
2018-06-30T14:22:22.840Z,25.90
2018-06-30T14:25:26.060Z,25.80
2018-06-30T14:28:29.474Z,25.80
2018-06-30T14:31:32.812Z,26.10
2018-06-30T14:34:36.227Z,25.90
2018-06-30T14:37:39.961Z,26.00
2018-06-30T14:40:43.088Z,26.10
2018-06-30T14:43:46.305Z,25.90
2018-06-30T14:46:49.459Z,25.50
2018-06-30T14:49:52.706Z,25.30
2018-06-30T14:52:56.086Z,25.40
2018-06-30T14:55:59.812Z,25.70
2018-06-30T14:59:03.048Z,25.40
2018-06-30T15:02:06.796Z,25.50
2018-06-30T15:05:11.207Z,25.50
2018-06-30T15:08:14.922Z,25.60
2018-06-30T15:11:18.262Z,25.60
2018-06-30T15:14:22.150Z,25.60
2018-06-30T15:17:25.698Z,25.50
2018-06-30T15:20:28.954Z,25.50
2018-06-30T15:23:32.309Z,25.50
2018-06-30T15:29:39.033Z,25.80
2018-06-30T15:32:42.860Z,25.60
2018-06-30T15:35:46.160Z,25.50
2018-06-30T15:38:49.370Z,25.40
2018-06-30T15:41:52.732Z,25.30
2018-06-30T15:44:56.170Z,25.40
2018-06-30T15:47:59.546Z,25.40
2018-06-30T15:51:02.736Z,25.30
2018-06-30T15:54:06.045Z,25.30
2018-06-30T15:57:09.607Z,25.30
2018-06-30T16:00:12.798Z,25.20
2018-06-30T16:03:16.204Z,25.10
2018-06-30T16:06:19.406Z,25.10
2018-06-30T16:09:23.038Z,25.10
2018-06-30T16:15:29.731Z,25.10
2018-06-30T16:18:32.962Z,25.10
2018-06-30T16:21:36.580Z,25.10
2018-06-30T16:24:39.731Z,25.00
2018-06-30T16:27:42.915Z,25.10
2018-06-30T16:30:46.074Z,25.20
2018-06-30T16:33:49.307Z,25.10
2018-06-30T16:36:52.568Z,25.10
2018-06-30T16:39:55.730Z,25.00
2018-06-30T16:42:58.911Z,25.10
2018-06-30T16:46:02.085Z,25.10
2018-06-30T16:49:05.348Z,25.00
2018-06-30T16:52:08.561Z,24.90
2018-06-30T16:58:14.667Z,24.90
2018-06-30T17:01:17.850Z,24.80
2018-06-30T17:04:21.115Z,24.80
2018-06-30T17:07:24.281Z,24.90
2018-06-30T17:10:27.728Z,24.80
2018-06-30T17:13:30.891Z,24.70
2018-06-30T17:16:34.104Z,24.70
2018-06-30T17:19:37.284Z,24.70
2018-06-30T17:22:40.456Z,24.60
2018-06-30T17:25:43.678Z,24.50
2018-06-30T17:28:46.812Z,24.50
2018-06-30T17:31:50.506Z,24.50
2018-06-30T17:34:53.679Z,24.40
2018-06-30T17:37:56.870Z,24.50
2018-06-30T17:41:00.028Z,24.40
2018-06-30T17:44:03.187Z,24.40
2018-06-30T17:47:06.372Z,24.50
2018-06-30T17:50:10.060Z,24.40
2018-06-30T17:53:13.556Z,24.30
2018-06-30T17:56:16.727Z,24.30
2018-06-30T17:59:20.050Z,24.20
2018-06-30T18:02:23.287Z,24.20
2018-06-30T18:05:26.452Z,24.20
2018-06-30T18:08:29.619Z,24.10
2018-06-30T18:11:32.801Z,24.10
2018-06-30T18:14:35.966Z,24.00
2018-06-30T18:17:39.128Z,23.90
2018-06-30T18:20:42.289Z,23.90
2018-06-30T18:23:45.474Z,23.90
2018-06-30T18:26:48.631Z,23.80
2018-06-30T18:29:51.809Z,23.70
2018-06-30T18:32:55.003Z,23.70
2018-06-30T18:35:58.169Z,23.70
2018-06-30T18:39:01.357Z,23.60
2018-06-30T18:42:04.630Z,23.50
2018-06-30T18:45:07.816Z,23.50
2018-06-30T18:48:10.998Z,23.40
2018-06-30T18:51:14.193Z,23.30
2018-06-30T18:54:17.412Z,23.20
2018-06-30T18:57:20.589Z,23.20
2018-06-30T19:00:23.761Z,23.10
2018-06-30T19:03:26.914Z,23.10
2018-06-30T19:06:30.096Z,23.00
2018-06-30T19:09:33.319Z,22.90
2018-06-30T19:12:36.510Z,22.80
2018-06-30T19:15:39.716Z,22.70
2018-06-30T19:18:42.887Z,22.70
2018-06-30T19:21:46.056Z,22.60
2018-06-30T19:24:49.217Z,22.50
2018-06-30T19:27:52.366Z,22.40
2018-06-30T19:30:55.547Z,22.40
2018-06-30T19:33:58.720Z,22.30
2018-06-30T19:37:01.907Z,22.20
2018-06-30T19:40:05.343Z,22.10
2018-06-30T19:43:08.548Z,22.00
2018-06-30T19:46:11.718Z,21.80
2018-06-30T19:49:14.870Z,21.70
2018-06-30T19:52:18.036Z,21.70
2018-06-30T19:55:21.206Z,21.60
2018-06-30T19:58:24.400Z,21.50
2018-06-30T20:01:27.625Z,21.40
2018-06-30T20:04:30.790Z,21.40
2018-06-30T20:07:38.253Z,21.30
2018-06-30T20:13:44.340Z,21.10
2018-06-30T20:16:47.502Z,21.00
2018-06-30T20:19:50.679Z,21.00
2018-06-30T20:22:53.982Z,20.90
2018-06-30T20:25:57.127Z,20.80
2018-06-30T20:29:00.298Z,20.70
2018-06-30T20:32:03.507Z,20.70
2018-06-30T20:35:06.666Z,20.60
2018-06-30T20:38:09.853Z,20.50
2018-06-30T20:41:13.135Z,20.40
2018-06-30T20:44:16.310Z,20.30
2018-06-30T20:47:19.473Z,20.20
2018-06-30T20:50:22.646Z,20.10
2018-06-30T20:53:25.823Z,20.10
2018-06-30T20:56:29.432Z,20.00
2018-06-30T21:02:35.516Z,19.90
2018-06-30T21:05:38.746Z,19.90
2018-06-30T21:08:41.968Z,19.70
2018-06-30T21:11:45.119Z,19.70
2018-06-30T21:14:48.287Z,19.70
2018-06-30T21:17:51.470Z,19.60
2018-06-30T21:20:54.642Z,19.50
2018-06-30T21:23:57.905Z,19.50
2018-06-30T21:27:01.087Z,19.40
2018-06-30T21:30:04.591Z,19.40
2018-06-30T21:33:07.763Z,19.30
2018-06-30T21:36:10.926Z,19.20
2018-06-30T21:39:14.683Z,19.10
2018-06-30T21:42:17.842Z,19.10
2018-06-30T21:45:21.015Z,19.00
2018-06-30T21:48:24.179Z,19.00
2018-06-30T21:51:27.359Z,19.00
2018-06-30T21:54:30.522Z,19.00
2018-06-30T21:57:33.862Z,18.90
2018-06-30T22:00:50.192Z,18.90
2018-06-30T22:03:54.361Z,18.90
2018-06-30T22:06:57.518Z,18.80
2018-06-30T22:10:00.676Z,18.80
2018-06-30T22:13:03.861Z,18.70
2018-06-30T22:16:07.064Z,18.70
2018-06-30T22:19:10.231Z,18.70
2018-06-30T22:22:13.408Z,18.60
2018-06-30T22:25:16.554Z,18.60
2018-06-30T22:28:19.806Z,18.50
2018-06-30T22:31:23.264Z,18.50
2018-06-30T22:34:26.432Z,18.50
2018-06-30T22:37:29.603Z,18.50
2018-06-30T22:40:32.767Z,18.50
2018-06-30T22:43:36.220Z,18.40
2018-06-30T22:46:39.390Z,18.40
2018-06-30T22:49:42.591Z,18.30
2018-06-30T22:52:45.767Z,18.40
2018-06-30T22:55:48.938Z,18.30
2018-06-30T22:58:52.123Z,18.20
2018-06-30T23:01:55.298Z,18.20
2018-06-30T23:04:58.456Z,18.20
2018-06-30T23:08:01.858Z,18.10
2018-06-30T23:11:05.015Z,18.10
2018-06-30T23:14:08.200Z,18.10
2018-06-30T23:20:14.335Z,18.00
2018-06-30T23:23:17.611Z,18.10
2018-06-30T23:26:20.764Z,18.10
2018-06-30T23:29:23.966Z,18.20
2018-06-30T23:32:27.124Z,18.20
2018-06-30T23:35:31.102Z,18.10
2018-06-30T23:38:34.271Z,18.00
2018-06-30T23:41:37.434Z,18.00
2018-06-30T23:44:40.661Z,17.90
2018-06-30T23:47:43.809Z,18.00
2018-06-30T23:50:46.976Z,18.00
2018-06-30T23:53:50.164Z,17.90
2018-06-30T23:56:53.319Z,17.90
2018-06-30T23:59:56.612Z,17.80
